sensor_id;sensor_type;location;lat;lon;timestamp;P1;durP1;ratioP1;P2;durP2;ratioP2
44822;SDS011;51097;51.984;5.650;2023-06-22T00:01:52;5.85;;;5.00;;
44822;SDS011;51097;51.984;5.650;2023-06-22T00:04:17;5.00;;;4.60;;
44822;SDS011;51097;51.984;5.650;2023-06-22T00:06:43;6.55;;;5.05;;
44822;SDS011;51097;51.984;5.650;2023-06-22T00:09:08;5.50;;;4.85;;
44822;SDS011;51097;51.984;5.650;2023-06-22T00:11:35;6.68;;;5.15;;
44822;SDS011;51097;51.984;5.650;2023-06-22T00:14:01;6.40;;;5.25;;
44822;SDS011;51097;51.984;5.650;2023-06-22T00:16:28;7.00;;;6.28;;
44822;SDS011;51097;51.984;5.650;2023-06-22T00:18:53;8.68;;;5.45;;
44822;SDS011;51097;51.984;5.650;2023-06-22T00:21:19;6.18;;;5.57;;
44822;SDS011;51097;51.984;5.650;2023-06-22T00:23:47;7.57;;;6.07;;
44822;SDS011;51097;51.984;5.650;2023-06-22T00:26:13;7.55;;;6.85;;
44822;SDS011;51097;51.984;5.650;2023-06-22T00:28:38;8.30;;;6.53;;
44822;SDS011;51097;51.984;5.650;2023-06-22T00:31:04;7.60;;;5.90;;
44822;SDS011;51097;51.984;5.650;2023-06-22T00:33:30;10.93;;;8.05;;
44822;SDS011;51097;51.984;5.650;2023-06-22T00:35:56;7.22;;;6.53;;
44822;SDS011;51097;51.984;5.650;2023-06-22T00:38:22;10.07;;;6.97;;
44822;SDS011;51097;51.984;5.650;2023-06-22T00:40:47;9.50;;;6.60;;
44822;SDS011;51097;51.984;5.650;2023-06-22T00:43:13;8.98;;;7.78;;
44822;SDS011;51097;51.984;5.650;2023-06-22T00:45:38;7.32;;;6.63;;
44822;SDS011;51097;51.984;5.650;2023-06-22T00:48:04;9.25;;;7.65;;
44822;SDS011;51097;51.984;5.650;2023-06-22T00:50:32;7.95;;;7.10;;
44822;SDS011;51097;51.984;5.650;2023-06-22T00:52:59;8.38;;;7.57;;
44822;SDS011;51097;51.984;5.650;2023-06-22T00:55:33;8.60;;;7.70;;
44822;SDS011;51097;51.984;5.650;2023-06-22T00:58:04;9.43;;;7.78;;
44822;SDS011;51097;51.984;5.650;2023-06-22T01:00:33;10.00;;;7.97;;
44822;SDS011;51097;51.984;5.650;2023-06-22T01:02:59;8.90;;;7.07;;
44822;SDS011;51097;51.984;5.650;2023-06-22T01:05:24;8.90;;;7.20;;
44822;SDS011;51097;51.984;5.650;2023-06-22T01:13:15;8.68;;;5.93;;
44822;SDS011;51097;51.984;5.650;2023-06-22T01:19:00;7.65;;;6.95;;
44822;SDS011;51097;51.984;5.650;2023-06-22T01:21:34;9.43;;;7.85;;
44822;SDS011;51097;51.984;5.650;2023-06-22T01:29:39;7.75;;;6.82;;
44822;SDS011;51097;51.984;5.650;2023-06-22T01:32:05;9.98;;;7.50;;
44822;SDS011;51097;51.984;5.650;2023-06-22T01:34:32;8.57;;;7.70;;
44822;SDS011;51097;51.984;5.650;2023-06-22T01:36:59;8.43;;;7.63;;
44822;SDS011;51097;51.984;5.650;2023-06-22T01:39:26;11.07;;;7.80;;
44822;SDS011;51097;51.984;5.650;2023-06-22T01:41:52;9.05;;;7.97;;
44822;SDS011;51097;51.984;5.650;2023-06-22T01:44:19;8.70;;;7.80;;
44822;SDS011;51097;51.984;5.650;2023-06-22T01:46:46;7.30;;;6.45;;
44822;SDS011;51097;51.984;5.650;2023-06-22T01:49:14;8.93;;;7.55;;
44822;SDS011;51097;51.984;5.650;2023-06-22T01:51:40;8.07;;;6.85;;
44822;SDS011;51097;51.984;5.650;2023-06-22T01:54:06;9.50;;;7.90;;
44822;SDS011;51097;51.984;5.650;2023-06-22T01:56:33;9.23;;;6.70;;
44822;SDS011;51097;51.984;5.650;2023-06-22T02:01:51;9.90;;;7.22;;
44822;SDS011;51097;51.984;5.650;2023-06-22T02:04:31;7.45;;;6.57;;
44822;SDS011;51097;51.984;5.650;2023-06-22T02:07:23;9.35;;;8.20;;
44822;SDS011;51097;51.984;5.650;2023-06-22T02:09:53;7.72;;;6.70;;
44822;SDS011;51097;51.984;5.650;2023-06-22T02:12:22;7.75;;;7.05;;
44822;SDS011;51097;51.984;5.650;2023-06-22T02:14:49;9.77;;;7.97;;
44822;SDS011;51097;51.984;5.650;2023-06-22T02:17:17;9.65;;;8.38;;
44822;SDS011;51097;51.984;5.650;2023-06-22T02:19:43;9.93;;;7.43;;
44822;SDS011;51097;51.984;5.650;2023-06-22T02:22:09;8.80;;;7.78;;
44822;SDS011;51097;51.984;5.650;2023-06-22T02:24:34;7.88;;;7.07;;
44822;SDS011;51097;51.984;5.650;2023-06-22T02:27:00;7.38;;;6.63;;
44822;SDS011;51097;51.984;5.650;2023-06-22T02:29:27;10.45;;;7.95;;
44822;SDS011;51097;51.984;5.650;2023-06-22T02:31:53;9.82;;;7.40;;
44822;SDS011;51097;51.984;5.650;2023-06-22T02:34:21;8.70;;;7.22;;
44822;SDS011;51097;51.984;5.650;2023-06-22T02:36:47;11.32;;;8.10;;
44822;SDS011;51097;51.984;5.650;2023-06-22T02:39:20;7.85;;;6.65;;
44822;SDS011;51097;51.984;5.650;2023-06-22T02:41:47;10.65;;;7.47;;
44822;SDS011;51097;51.984;5.650;2023-06-22T02:44:17;8.90;;;8.10;;
44822;SDS011;51097;51.984;5.650;2023-06-22T02:46:43;8.45;;;7.65;;
44822;SDS011;51097;51.984;5.650;2023-06-22T02:49:09;11.57;;;9.95;;
44822;SDS011;51097;51.984;5.650;2023-06-22T02:51:35;10.70;;;9.50;;
44822;SDS011;51097;51.984;5.650;2023-06-22T02:54:04;8.40;;;7.60;;
44822;SDS011;51097;51.984;5.650;2023-06-22T02:56:32;9.50;;;8.45;;
44822;SDS011;51097;51.984;5.650;2023-06-22T02:58:58;11.50;;;10.23;;
44822;SDS011;51097;51.984;5.650;2023-06-22T03:01:27;10.80;;;9.70;;
44822;SDS011;51097;51.984;5.650;2023-06-22T03:03:53;12.73;;;10.52;;
44822;SDS011;51097;51.984;5.650;2023-06-22T03:06:19;13.13;;;10.80;;
44822;SDS011;51097;51.984;5.650;2023-06-22T03:08:51;12.83;;;10.90;;
44822;SDS011;51097;51.984;5.650;2023-06-22T03:11:17;14.05;;;10.57;;
44822;SDS011;51097;51.984;5.650;2023-06-22T03:13:43;13.68;;;11.20;;
44822;SDS011;51097;51.984;5.650;2023-06-22T03:16:08;13.52;;;11.55;;
44822;SDS011;51097;51.984;5.650;2023-06-22T03:18:34;12.43;;;10.50;;
44822;SDS011;51097;51.984;5.650;2023-06-22T03:21:00;11.40;;;10.20;;
44822;SDS011;51097;51.984;5.650;2023-06-22T03:23:27;13.05;;;11.48;;
44822;SDS011;51097;51.984;5.650;2023-06-22T03:25:52;14.35;;;12.45;;
44822;SDS011;51097;51.984;5.650;2023-06-22T03:28:20;13.15;;;11.85;;
44822;SDS011;51097;51.984;5.650;2023-06-22T03:30:46;11.50;;;10.18;;
44822;SDS011;51097;51.984;5.650;2023-06-22T03:33:12;11.88;;;10.60;;
44822;SDS011;51097;51.984;5.650;2023-06-22T03:35:37;13.65;;;12.20;;
44822;SDS011;51097;51.984;5.650;2023-06-22T03:38:03;16.73;;;12.40;;
44822;SDS011;51097;51.984;5.650;2023-06-22T03:40:29;11.25;;;10.25;;
44822;SDS011;51097;51.984;5.650;2023-06-22T03:42:55;14.05;;;12.52;;
44822;SDS011;51097;51.984;5.650;2023-06-22T03:45:20;14.38;;;11.23;;
44822;SDS011;51097;51.984;5.650;2023-06-22T03:47:46;12.13;;;10.85;;
44822;SDS011;51097;51.984;5.650;2023-06-22T03:50:12;14.63;;;12.23;;
44822;SDS011;51097;51.984;5.650;2023-06-22T03:52:38;13.35;;;10.35;;
44822;SDS011;51097;51.984;5.650;2023-06-22T03:55:05;11.85;;;10.68;;
44822;SDS011;51097;51.984;5.650;2023-06-22T03:57:31;14.75;;;11.45;;
44822;SDS011;51097;51.984;5.650;2023-06-22T03:59:57;15.85;;;12.82;;
44822;SDS011;51097;51.984;5.650;2023-06-22T04:02:23;14.20;;;11.77;;
44822;SDS011;51097;51.984;5.650;2023-06-22T04:04:49;14.20;;;12.15;;
44822;SDS011;51097;51.984;5.650;2023-06-22T04:07:14;14.40;;;13.00;;
44822;SDS011;51097;51.984;5.650;2023-06-22T04:09:40;16.15;;;12.88;;
44822;SDS011;51097;51.984;5.650;2023-06-22T04:12:05;15.02;;;12.30;;
44822;SDS011;51097;51.984;5.650;2023-06-22T04:14:31;13.15;;;11.85;;
44822;SDS011;51097;51.984;5.650;2023-06-22T04:16:57;16.92;;;13.55;;
44822;SDS011;51097;51.984;5.650;2023-06-22T04:19:23;21.67;;;16.67;;
44822;SDS011;51097;51.984;5.650;2023-06-22T04:21:49;16.75;;;14.90;;
44822;SDS011;51097;51.984;5.650;2023-06-22T04:24:14;19.15;;;14.82;;
44822;SDS011;51097;51.984;5.650;2023-06-22T04:26:40;15.75;;;14.07;;
44822;SDS011;51097;51.984;5.650;2023-06-22T04:29:07;12.80;;;11.43;;
44822;SDS011;51097;51.984;5.650;2023-06-22T04:31:34;16.13;;;13.90;;
44822;SDS011;51097;51.984;5.650;2023-06-22T04:34:06;14.63;;;12.45;;
44822;SDS011;51097;51.984;5.650;2023-06-22T04:36:36;15.02;;;12.50;;
44822;SDS011;51097;51.984;5.650;2023-06-22T04:39:07;17.92;;;13.45;;
44822;SDS011;51097;51.984;5.650;2023-06-22T04:41:39;16.80;;;14.20;;
44822;SDS011;51097;51.984;5.650;2023-06-22T04:44:11;19.92;;;14.85;;
44822;SDS011;51097;51.984;5.650;2023-06-22T04:46:37;18.60;;;14.77;;
44822;SDS011;51097;51.984;5.650;2023-06-22T04:49:04;21.08;;;17.02;;
44822;SDS011;51097;51.984;5.650;2023-06-22T04:51:31;16.55;;;14.85;;
44822;SDS011;51097;51.984;5.650;2023-06-22T04:53:57;20.58;;;17.38;;
44822;SDS011;51097;51.984;5.650;2023-06-22T04:56:25;25.63;;;19.35;;
44822;SDS011;51097;51.984;5.650;2023-06-22T04:58:53;22.38;;;19.60;;
44822;SDS011;51097;51.984;5.650;2023-06-22T05:01:22;23.88;;;20.98;;
44822;SDS011;51097;51.984;5.650;2023-06-22T05:03:48;28.25;;;22.38;;
44822;SDS011;51097;51.984;5.650;2023-06-22T05:06:14;29.48;;;24.88;;
44822;SDS011;51097;51.984;5.650;2023-06-22T05:08:40;34.70;;;27.27;;
44822;SDS011;51097;51.984;5.650;2023-06-22T05:11:06;32.78;;;28.33;;
44822;SDS011;51097;51.984;5.650;2023-06-22T05:13:31;33.33;;;27.85;;
44822;SDS011;51097;51.984;5.650;2023-06-22T05:15:57;30.85;;;27.42;;
44822;SDS011;51097;51.984;5.650;2023-06-22T05:18:29;33.95;;;29.70;;
44822;SDS011;51097;51.984;5.650;2023-06-22T05:20:55;35.50;;;30.70;;
44822;SDS011;51097;51.984;5.650;2023-06-22T05:23:21;32.25;;;28.67;;
44822;SDS011;51097;51.984;5.650;2023-06-22T05:25:47;36.67;;;29.88;;
44822;SDS011;51097;51.984;5.650;2023-06-22T05:28:12;34.10;;;29.30;;
44822;SDS011;51097;51.984;5.650;2023-06-22T05:30:38;33.03;;;29.52;;
44822;SDS011;51097;51.984;5.650;2023-06-22T05:33:04;31.63;;;26.17;;
44822;SDS011;51097;51.984;5.650;2023-06-22T05:35:30;33.35;;;28.10;;
44822;SDS011;51097;51.984;5.650;2023-06-22T05:37:56;37.72;;;30.42;;
44822;SDS011;51097;51.984;5.650;2023-06-22T05:40:21;34.72;;;28.95;;
44822;SDS011;51097;51.984;5.650;2023-06-22T05:42:47;35.03;;;30.85;;
44822;SDS011;51097;51.984;5.650;2023-06-22T05:45:13;31.63;;;28.27;;
44822;SDS011;51097;51.984;5.650;2023-06-22T05:47:38;30.17;;;26.50;;
44822;SDS011;51097;51.984;5.650;2023-06-22T05:50:04;33.45;;;28.42;;
44822;SDS011;51097;51.984;5.650;2023-06-22T05:52:33;33.35;;;27.70;;
44822;SDS011;51097;51.984;5.650;2023-06-22T05:54:58;31.05;;;27.85;;
44822;SDS011;51097;51.984;5.650;2023-06-22T05:57:24;31.38;;;25.95;;
44822;SDS011;51097;51.984;5.650;2023-06-22T05:59:49;31.17;;;26.70;;
44822;SDS011;51097;51.984;5.650;2023-06-22T06:02:16;30.60;;;25.40;;
44822;SDS011;51097;51.984;5.650;2023-06-22T06:04:42;28.17;;;22.25;;
44822;SDS011;51097;51.984;5.650;2023-06-22T06:07:07;26.48;;;23.60;;
44822;SDS011;51097;51.984;5.650;2023-06-22T06:09:33;28.05;;;23.35;;
44822;SDS011;51097;51.984;5.650;2023-06-22T06:11:58;27.35;;;22.88;;
44822;SDS011;51097;51.984;5.650;2023-06-22T06:14:24;30.73;;;23.70;;
44822;SDS011;51097;51.984;5.650;2023-06-22T06:16:50;26.13;;;22.45;;
44822;SDS011;51097;51.984;5.650;2023-06-22T06:19:15;24.70;;;22.30;;
44822;SDS011;51097;51.984;5.650;2023-06-22T06:21:41;25.65;;;22.90;;
44822;SDS011;51097;51.984;5.650;2023-06-22T06:24:06;24.52;;;21.83;;
44822;SDS011;51097;51.984;5.650;2023-06-22T06:26:32;24.98;;;22.42;;
44822;SDS011;51097;51.984;5.650;2023-06-22T06:28:58;21.63;;;19.25;;
44822;SDS011;51097;51.984;5.650;2023-06-22T06:31:25;22.80;;;20.50;;
44822;SDS011;51097;51.984;5.650;2023-06-22T06:33:53;21.60;;;19.35;;
44822;SDS011;51097;51.984;5.650;2023-06-22T06:36:19;22.20;;;19.88;;
44822;SDS011;51097;51.984;5.650;2023-06-22T06:38:45;21.65;;;19.50;;
44822;SDS011;51097;51.984;5.650;2023-06-22T06:41:12;20.38;;;18.23;;
44822;SDS011;51097;51.984;5.650;2023-06-22T06:43:38;23.00;;;20.45;;
44822;SDS011;51097;51.984;5.650;2023-06-22T06:46:04;21.50;;;18.42;;
44822;SDS011;51097;51.984;5.650;2023-06-22T06:48:30;20.48;;;18.30;;
44822;SDS011;51097;51.984;5.650;2023-06-22T06:50:55;18.77;;;16.95;;
44822;SDS011;51097;51.984;5.650;2023-06-22T06:53:21;17.55;;;15.77;;
44822;SDS011;51097;51.984;5.650;2023-06-22T06:55:46;17.90;;;15.93;;
44822;SDS011;51097;51.984;5.650;2023-06-22T06:58:12;17.05;;;15.23;;
44822;SDS011;51097;51.984;5.650;2023-06-22T07:00:38;16.88;;;15.15;;
44822;SDS011;51097;51.984;5.650;2023-06-22T07:03:04;16.42;;;14.85;;
44822;SDS011;51097;51.984;5.650;2023-06-22T07:05:30;15.63;;;14.02;;
44822;SDS011;51097;51.984;5.650;2023-06-22T07:07:55;15.40;;;13.25;;
44822;SDS011;51097;51.984;5.650;2023-06-22T07:10:21;13.90;;;12.50;;
44822;SDS011;51097;51.984;5.650;2023-06-22T07:12:47;15.57;;;12.85;;
44822;SDS011;51097;51.984;5.650;2023-06-22T07:15:13;14.65;;;11.93;;
44822;SDS011;51097;51.984;5.650;2023-06-22T07:17:38;12.85;;;11.55;;
44822;SDS011;51097;51.984;5.650;2023-06-22T07:20:06;12.48;;;11.18;;
44822;SDS011;51097;51.984;5.650;2023-06-22T07:22:37;11.90;;;10.63;;
44822;SDS011;51097;51.984;5.650;2023-06-22T07:25:03;11.10;;;9.35;;
44822;SDS011;51097;51.984;5.650;2023-06-22T07:27:34;11.63;;;9.60;;
44822;SDS011;51097;51.984;5.650;2023-06-22T07:30:05;10.18;;;9.15;;
44822;SDS011;51097;51.984;5.650;2023-06-22T07:32:31;9.32;;;8.45;;
44822;SDS011;51097;51.984;5.650;2023-06-22T07:34:57;10.45;;;8.50;;
44822;SDS011;51097;51.984;5.650;2023-06-22T07:37:22;8.40;;;7.57;;
44822;SDS011;51097;51.984;5.650;2023-06-22T07:39:48;9.95;;;8.60;;
44822;SDS011;51097;51.984;5.650;2023-06-22T07:42:18;10.00;;;9.10;;
44822;SDS011;51097;51.984;5.650;2023-06-22T07:44:44;9.18;;;8.05;;
44822;SDS011;51097;51.984;5.650;2023-06-22T07:47:09;11.07;;;9.18;;
44822;SDS011;51097;51.984;5.650;2023-06-22T07:49:35;8.55;;;7.57;;
44822;SDS011;51097;51.984;5.650;2023-06-22T07:52:01;10.93;;;7.45;;
44822;SDS011;51097;51.984;5.650;2023-06-22T07:54:27;8.25;;;6.70;;
44822;SDS011;51097;51.984;5.650;2023-06-22T07:56:52;8.63;;;7.40;;
44822;SDS011;51097;51.984;5.650;2023-06-22T07:59:18;8.48;;;7.25;;
44822;SDS011;51097;51.984;5.650;2023-06-22T08:01:43;6.32;;;5.68;;
44822;SDS011;51097;51.984;5.650;2023-06-22T08:04:09;8.25;;;7.15;;
44822;SDS011;51097;51.984;5.650;2023-06-22T08:06:35;11.75;;;7.05;;
44822;SDS011;51097;51.984;5.650;2023-06-22T08:09:00;8.38;;;7.53;;
44822;SDS011;51097;51.984;5.650;2023-06-22T08:11:26;10.23;;;7.00;;
44822;SDS011;51097;51.984;5.650;2023-06-22T08:13:52;8.55;;;6.82;;
44822;SDS011;51097;51.984;5.650;2023-06-22T08:16:17;7.63;;;6.78;;
44822;SDS011;51097;51.984;5.650;2023-06-22T08:18:43;6.88;;;5.95;;
44822;SDS011;51097;51.984;5.650;2023-06-22T08:21:09;7.90;;;7.15;;
44822;SDS011;51097;51.984;5.650;2023-06-22T08:23:35;8.32;;;6.50;;
44822;SDS011;51097;51.984;5.650;2023-06-22T08:26:01;8.13;;;7.32;;
44822;SDS011;51097;51.984;5.650;2023-06-22T08:28:27;8.65;;;6.47;;
44822;SDS011;51097;51.984;5.650;2023-06-22T08:30:52;9.25;;;7.03;;
44822;SDS011;51097;51.984;5.650;2023-06-22T08:33:18;8.15;;;7.35;;
44822;SDS011;51097;51.984;5.650;2023-06-22T08:35:43;7.05;;;6.35;;
44822;SDS011;51097;51.984;5.650;2023-06-22T08:38:09;6.75;;;6.05;;
44822;SDS011;51097;51.984;5.650;2023-06-22T08:40:35;6.85;;;6.15;;
44822;SDS011;51097;51.984;5.650;2023-06-22T08:43:01;6.65;;;5.28;;
44822;SDS011;51097;51.984;5.650;2023-06-22T08:45:26;7.07;;;6.15;;
44822;SDS011;51097;51.984;5.650;2023-06-22T08:47:52;7.50;;;6.65;;
44822;SDS011;51097;51.984;5.650;2023-06-22T08:50:18;7.72;;;6.80;;
44822;SDS011;51097;51.984;5.650;2023-06-22T08:52:43;8.15;;;6.82;;
44822;SDS011;51097;51.984;5.650;2023-06-22T08:55:10;6.90;;;6.28;;
44822;SDS011;51097;51.984;5.650;2023-06-22T08:57:36;7.53;;;6.65;;
44822;SDS011;51097;51.984;5.650;2023-06-22T09:00:05;7.70;;;6.90;;
44822;SDS011;51097;51.984;5.650;2023-06-22T09:02:39;7.85;;;7.05;;
44822;SDS011;51097;51.984;5.650;2023-06-22T09:05:05;7.25;;;6.32;;
44822;SDS011;51097;51.984;5.650;2023-06-22T09:07:31;6.22;;;5.68;;
44822;SDS011;51097;51.984;5.650;2023-06-22T09:09:57;7.13;;;6.45;;
44822;SDS011;51097;51.984;5.650;2023-06-22T09:12:22;6.82;;;5.50;;
44822;SDS011;51097;51.984;5.650;2023-06-22T09:14:51;7.38;;;6.60;;
44822;SDS011;51097;51.984;5.650;2023-06-22T09:17:16;5.72;;;5.07;;
44822;SDS011;51097;51.984;5.650;2023-06-22T09:19:42;5.18;;;4.68;;
44822;SDS011;51097;51.984;5.650;2023-06-22T09:22:08;6.18;;;4.85;;
44822;SDS011;51097;51.984;5.650;2023-06-22T09:24:33;5.95;;;4.50;;
44822;SDS011;51097;51.984;5.650;2023-06-22T09:26:59;6.63;;;4.72;;
44822;SDS011;51097;51.984;5.650;2023-06-22T09:29:24;5.13;;;4.63;;
44822;SDS011;51097;51.984;5.650;2023-06-22T09:31:50;5.72;;;5.03;;
44822;SDS011;51097;51.984;5.650;2023-06-22T09:34:15;5.05;;;4.25;;
44822;SDS011;51097;51.984;5.650;2023-06-22T09:36:45;4.80;;;3.90;;
44822;SDS011;51097;51.984;5.650;2023-06-22T09:39:13;4.65;;;3.78;;
44822;SDS011;51097;51.984;5.650;2023-06-22T09:41:39;4.32;;;4.00;;
44822;SDS011;51097;51.984;5.650;2023-06-22T09:44:04;4.72;;;4.07;;
44822;SDS011;51097;51.984;5.650;2023-06-22T09:46:30;4.68;;;4.28;;
44822;SDS011;51097;51.984;5.650;2023-06-22T09:48:56;6.13;;;4.15;;
44822;SDS011;51097;51.984;5.650;2023-06-22T09:51:22;5.38;;;4.88;;
44822;SDS011;51097;51.984;5.650;2023-06-22T09:53:48;5.68;;;4.57;;
44822;SDS011;51097;51.984;5.650;2023-06-22T09:56:15;7.05;;;4.50;;
44822;SDS011;51097;51.984;5.650;2023-06-22T09:58:41;5.10;;;4.60;;
44822;SDS011;51097;51.984;5.650;2023-06-22T10:01:07;5.72;;;5.13;;
44822;SDS011;51097;51.984;5.650;2023-06-22T10:03:33;8.55;;;4.78;;
44822;SDS011;51097;51.984;5.650;2023-06-22T10:05:59;6.63;;;4.07;;
44822;SDS011;51097;51.984;5.650;2023-06-22T10:08:24;7.18;;;5.03;;
44822;SDS011;51097;51.984;5.650;2023-06-22T10:10:50;7.05;;;5.32;;
44822;SDS011;51097;51.984;5.650;2023-06-22T10:13:16;5.05;;;4.55;;
44822;SDS011;51097;51.984;5.650;2023-06-22T10:15:41;8.85;;;5.18;;
44822;SDS011;51097;51.984;5.650;2023-06-22T10:18:07;5.80;;;4.80;;
44822;SDS011;51097;51.984;5.650;2023-06-22T10:20:33;4.68;;;4.28;;
44822;SDS011;51097;51.984;5.650;2023-06-22T10:22:59;5.30;;;4.78;;
44822;SDS011;51097;51.984;5.650;2023-06-22T10:25:24;5.10;;;4.60;;
44822;SDS011;51097;51.984;5.650;2023-06-22T10:27:50;6.32;;;4.85;;
44822;SDS011;51097;51.984;5.650;2023-06-22T10:30:15;5.30;;;4.80;;
44822;SDS011;51097;51.984;5.650;2023-06-22T10:32:42;7.13;;;5.80;;
44822;SDS011;51097;51.984;5.650;2023-06-22T10:35:08;4.85;;;4.45;;
44822;SDS011;51097;51.984;5.650;2023-06-22T10:37:35;7.57;;;5.53;;
44822;SDS011;51097;51.984;5.650;2023-06-22T10:40:01;6.10;;;5.40;;
44822;SDS011;51097;51.984;5.650;2023-06-22T10:42:29;6.65;;;4.97;;
44822;SDS011;51097;51.984;5.650;2023-06-22T10:44:54;4.78;;;4.35;;
44822;SDS011;51097;51.984;5.650;2023-06-22T10:47:20;6.25;;;5.35;;
44822;SDS011;51097;51.984;5.650;2023-06-22T10:49:45;5.60;;;5.15;;
44822;SDS011;51097;51.984;5.650;2023-06-22T10:52:11;7.93;;;5.75;;
44822;SDS011;51097;51.984;5.650;2023-06-22T10:54:37;6.28;;;5.70;;
44822;SDS011;51097;51.984;5.650;2023-06-22T10:57:03;8.95;;;5.03;;
44822;SDS011;51097;51.984;5.650;2023-06-22T10:59:29;6.13;;;5.15;;
44822;SDS011;51097;51.984;5.650;2023-06-22T11:01:55;5.60;;;4.95;;
44822;SDS011;51097;51.984;5.650;2023-06-22T11:04:21;6.32;;;5.18;;
44822;SDS011;51097;51.984;5.650;2023-06-22T11:06:47;6.07;;;5.25;;
44822;SDS011;51097;51.984;5.650;2023-06-22T11:09:13;8.00;;;5.10;;
44822;SDS011;51097;51.984;5.650;2023-06-22T11:11:44;6.90;;;6.30;;
44822;SDS011;51097;51.984;5.650;2023-06-22T11:14:10;6.22;;;5.68;;
44822;SDS011;51097;51.984;5.650;2023-06-22T11:16:35;7.28;;;6.20;;
44822;SDS011;51097;51.984;5.650;2023-06-22T11:19:01;7.30;;;6.20;;
44822;SDS011;51097;51.984;5.650;2023-06-22T11:21:28;6.28;;;5.78;;
44822;SDS011;51097;51.984;5.650;2023-06-22T11:23:53;6.63;;;6.03;;
44822;SDS011;51097;51.984;5.650;2023-06-22T11:26:19;7.93;;;7.15;;
44822;SDS011;51097;51.984;5.650;2023-06-22T11:28:46;8.63;;;7.72;;
44822;SDS011;51097;51.984;5.650;2023-06-22T11:31:11;7.60;;;6.90;;
44822;SDS011;51097;51.984;5.650;2023-06-22T11:33:37;7.65;;;6.95;;
44822;SDS011;51097;51.984;5.650;2023-06-22T11:36:03;10.20;;;7.50;;
44822;SDS011;51097;51.984;5.650;2023-06-22T11:38:28;7.20;;;6.45;;
44822;SDS011;51097;51.984;5.650;2023-06-22T11:40:55;7.43;;;6.75;;
44822;SDS011;51097;51.984;5.650;2023-06-22T11:43:23;9.02;;;7.28;;
44822;SDS011;51097;51.984;5.650;2023-06-22T11:45:48;9.85;;;6.93;;
44822;SDS011;51097;51.984;5.650;2023-06-22T11:48:14;8.40;;;7.60;;
44822;SDS011;51097;51.984;5.650;2023-06-22T11:50:39;9.05;;;8.25;;
44822;SDS011;51097;51.984;5.650;2023-06-22T11:53:05;9.25;;;8.30;;
44822;SDS011;51097;51.984;5.650;2023-06-22T11:55:30;9.05;;;8.23;;
44822;SDS011;51097;51.984;5.650;2023-06-22T11:57:57;9.23;;;7.57;;
44822;SDS011;51097;51.984;5.650;2023-06-22T12:00:28;9.00;;;8.10;;
44822;SDS011;51097;51.984;5.650;2023-06-22T12:02:54;11.02;;;8.35;;
44822;SDS011;51097;51.984;5.650;2023-06-22T12:05:20;11.00;;;10.00;;
44822;SDS011;51097;51.984;5.650;2023-06-22T12:07:47;11.32;;;9.02;;
44822;SDS011;51097;51.984;5.650;2023-06-22T12:10:13;13.20;;;10.50;;
44822;SDS011;51097;51.984;5.650;2023-06-22T12:12:39;12.45;;;11.18;;
44822;SDS011;51097;51.984;5.650;2023-06-22T12:15:05;12.60;;;11.40;;
44822;SDS011;51097;51.984;5.650;2023-06-22T12:17:31;12.05;;;10.77;;
44822;SDS011;51097;51.984;5.650;2023-06-22T12:19:58;12.02;;;10.48;;
44822;SDS011;51097;51.984;5.650;2023-06-22T12:22:23;11.95;;;10.40;;
44822;SDS011;51097;51.984;5.650;2023-06-22T12:24:49;13.10;;;11.90;;
44822;SDS011;51097;51.984;5.650;2023-06-22T12:27:15;12.27;;;11.18;;
44822;SDS011;51097;51.984;5.650;2023-06-22T12:29:43;11.68;;;10.73;;
44822;SDS011;51097;51.984;5.650;2023-06-22T12:32:10;12.77;;;11.57;;
44822;SDS011;51097;51.984;5.650;2023-06-22T12:34:38;14.70;;;13.20;;
44822;SDS011;51097;51.984;5.650;2023-06-22T12:37:04;13.88;;;12.68;;
44822;SDS011;51097;51.984;5.650;2023-06-22T12:39:30;13.20;;;11.68;;
44822;SDS011;51097;51.984;5.650;2023-06-22T12:41:56;14.35;;;12.75;;
44822;SDS011;51097;51.984;5.650;2023-06-22T12:44:22;14.85;;;13.45;;
44822;SDS011;51097;51.984;5.650;2023-06-22T12:46:47;15.00;;;13.45;;
44822;SDS011;51097;51.984;5.650;2023-06-22T12:49:13;14.90;;;13.32;;
44822;SDS011;51097;51.984;5.650;2023-06-22T12:51:39;14.63;;;13.32;;
44822;SDS011;51097;51.984;5.650;2023-06-22T12:54:06;16.48;;;14.80;;
44822;SDS011;51097;51.984;5.650;2023-06-22T12:56:32;14.70;;;13.40;;
44822;SDS011;51097;51.984;5.650;2023-06-22T12:58:58;15.80;;;14.27;;
44822;SDS011;51097;51.984;5.650;2023-06-22T13:01:26;15.18;;;13.82;;
44822;SDS011;51097;51.984;5.650;2023-06-22T13:03:52;15.45;;;14.13;;
44822;SDS011;51097;51.984;5.650;2023-06-22T13:06:18;16.10;;;14.50;;
44822;SDS011;51097;51.984;5.650;2023-06-22T13:08:44;16.48;;;14.98;;
44822;SDS011;51097;51.984;5.650;2023-06-22T13:11:09;17.30;;;15.63;;
44822;SDS011;51097;51.984;5.650;2023-06-22T13:13:35;16.63;;;14.80;;
44822;SDS011;51097;51.984;5.650;2023-06-22T13:16:01;16.33;;;14.90;;
44822;SDS011;51097;51.984;5.650;2023-06-22T13:18:26;17.95;;;16.25;;
44822;SDS011;51097;51.984;5.650;2023-06-22T13:20:52;16.35;;;14.45;;
44822;SDS011;51097;51.984;5.650;2023-06-22T13:23:19;18.85;;;16.92;;
44822;SDS011;51097;51.984;5.650;2023-06-22T13:25:46;18.02;;;16.38;;
44822;SDS011;51097;51.984;5.650;2023-06-22T13:28:11;17.48;;;15.82;;
44822;SDS011;51097;51.984;5.650;2023-06-22T13:30:38;16.80;;;15.40;;
44822;SDS011;51097;51.984;5.650;2023-06-22T13:33:05;18.55;;;16.92;;
44822;SDS011;51097;51.984;5.650;2023-06-22T13:35:31;17.70;;;15.90;;
44822;SDS011;51097;51.984;5.650;2023-06-22T13:37:56;17.67;;;16.02;;
44822;SDS011;51097;51.984;5.650;2023-06-22T13:40:22;18.63;;;16.95;;
44822;SDS011;51097;51.984;5.650;2023-06-22T13:42:47;18.80;;;17.13;;
44822;SDS011;51097;51.984;5.650;2023-06-22T13:45:13;18.83;;;17.02;;
44822;SDS011;51097;51.984;5.650;2023-06-22T13:47:39;19.73;;;17.83;;
44822;SDS011;51097;51.984;5.650;2023-06-22T13:50:05;19.70;;;17.52;;
44822;SDS011;51097;51.984;5.650;2023-06-22T13:52:30;19.58;;;17.88;;
44822;SDS011;51097;51.984;5.650;2023-06-22T13:54:56;18.58;;;16.92;;
44822;SDS011;51097;51.984;5.650;2023-06-22T13:57:23;19.75;;;17.70;;
44822;SDS011;51097;51.984;5.650;2023-06-22T13:59:48;20.52;;;18.55;;
44822;SDS011;51097;51.984;5.650;2023-06-22T14:02:14;21.48;;;19.35;;
44822;SDS011;51097;51.984;5.650;2023-06-22T14:04:40;22.50;;;20.45;;
44822;SDS011;51097;51.984;5.650;2023-06-22T14:07:05;24.05;;;21.52;;
44822;SDS011;51097;51.984;5.650;2023-06-22T14:09:31;21.35;;;19.30;;
44822;SDS011;51097;51.984;5.650;2023-06-22T14:11:56;21.48;;;19.45;;
44822;SDS011;51097;51.984;5.650;2023-06-22T14:14:22;22.02;;;19.92;;
44822;SDS011;51097;51.984;5.650;2023-06-22T14:16:48;21.70;;;19.67;;
44822;SDS011;51097;51.984;5.650;2023-06-22T14:19:16;22.10;;;19.95;;
44822;SDS011;51097;51.984;5.650;2023-06-22T14:21:42;24.77;;;22.27;;
44822;SDS011;51097;51.984;5.650;2023-06-22T14:24:08;20.67;;;18.77;;
44822;SDS011;51097;51.984;5.650;2023-06-22T14:26:33;25.80;;;23.33;;
44822;SDS011;51097;51.984;5.650;2023-06-22T14:28:59;24.20;;;21.70;;
44822;SDS011;51097;51.984;5.650;2023-06-22T14:31:25;26.05;;;23.65;;
44822;SDS011;51097;51.984;5.650;2023-06-22T14:33:50;22.38;;;20.27;;
44822;SDS011;51097;51.984;5.650;2023-06-22T14:36:16;25.77;;;23.25;;
44822;SDS011;51097;51.984;5.650;2023-06-22T14:38:45;25.60;;;23.23;;
44822;SDS011;51097;51.984;5.650;2023-06-22T14:41:11;25.55;;;23.20;;
44822;SDS011;51097;51.984;5.650;2023-06-22T14:43:36;26.45;;;23.88;;
44822;SDS011;51097;51.984;5.650;2023-06-22T14:46:02;26.08;;;23.58;;